Flight Track Log - Related Links

Times and Time Zones

All times are in EDT time to prevent confusion due to time zone crossing. See the N581SA flight status page for this flight to view local times or setup timezone preferences in your user account.

Time Position Orientation Groundspeed Altitude Reporting Facility
EDT Latitude Longitude Course Direction KTS MPH feet Rate Location/Type
Thu 06:47:04 PM 38.5333 -121.5167 159° South 124 143 600  Level Northern Cal TRACON
Thu 06:47:59 PM 38.5000 -121.5000 159° South 156 180 1,500 893 Climbing Northern Cal TRACON
Thu 06:49:05 PM 38.4667 -121.4500 130° Southeast 155 178 2,400 762 Climbing Northern Cal TRACON
Thu 06:50:05 PM 38.4333 -121.4167 142° Southeast 160 184 3,100 600 Climbing Northern Cal TRACON
Thu 06:51:05 PM 38.4000 -121.3833 142° Southeast 175 201 3,600 450 Climbing Northern Cal TRACON
Thu 06:52:05 PM 38.3667 -121.3333 130° Southeast 175 201 4,000 450 Climbing Northern Cal TRACON
Thu 06:53:05 PM 38.3167 -121.3000 152° Southeast 178 205 4,500 500 Climbing Northern Cal TRACON
Thu 06:54:05 PM 38.2833 -121.2667 142° Southeast 173 199 5,000 500 Climbing Northern Cal TRACON
Thu 06:55:05 PM 38.2500 -121.2167 130° Southeast 175 201 5,500 450 Climbing Northern Cal TRACON
Thu 06:56:05 PM 38.2167 -121.1833 142° Southeast 177 204 5,900 500 Climbing Northern Cal TRACON
Thu 06:57:05 PM 38.1667 -121.1500 152° Southeast 175 201 6,500 550 Climbing Northern Cal TRACON
Thu 06:58:05 PM 38.1333 -121.1000 130° Southeast 171 197 7,000 519 Climbing Northern Cal TRACON
Thu 06:58:26 PM 38.1278 -121.0914 129° Southeast 172 198 7,200 366 Climbing Oakland Center
Thu 06:59:27 PM 38.0903 -121.0531 141° Southeast 172 198 7,500 197 Climbing Oakland Center
Thu 07:00:28 PM 38.0494 -121.0100 140° Southeast 186 214 7,600 49 Climbing Oakland Center
Thu 07:01:29 PM 38.0081 -120.9658 140° Southeast 191 220 7,600  Level Oakland Center
Thu 07:02:31 PM 37.9656 -120.9236 142° Southeast 194 223 7,600 -49 Level Oakland Center
Thu 07:03:32 PM 37.9233 -120.8789 140° Southeast 197 227 7,500 -49 Descending Oakland Center
Thu 07:04:33 PM 37.8806 -120.8358 142° Southeast 197 227 7,500  Level Oakland Center
Thu 07:05:05 PM 37.8500 -120.8000 137° Southeast 198 228 7,500  Level Northern Cal TRACON
Thu 07:06:05 PM 37.8167 -120.7667 142° Southeast 194 223 7,500  Level Northern Cal TRACON
Thu 07:07:05 PM 37.7667 -120.7167 142° Southeast 193 222 7,500  Level Northern Cal TRACON
Thu 07:08:05 PM 37.7167 -120.6833 152° Southeast 193 222 7,500  Level Northern Cal TRACON
Thu 07:09:05 PM 37.6833 -120.6333 130° Southeast 195 224 7,500  Level Northern Cal TRACON
Thu 07:09:40 PM 37.6639 -120.6114 138° Southeast 196 226 7,500  Level Oakland Center
Thu 07:10:41 PM 37.6217 -120.5678 141° Southeast 197 227 7,500 -71 Level Oakland Center
Thu 07:11:05 PM 37.6000 -120.5500 147° Southeast 195 224 7,400  Descending Northern Cal TRACON
Thu 07:12:00 PM 37.5667 -120.5167 142° Southeast 196 226 7,500  Climbing Northern Cal TRACON
Thu 07:13:00 PM 37.5167 -120.4667 142° Southeast 198 228 7,400 -48 Descending Northern Cal TRACON
Thu 07:14:05 PM 37.4667 -120.4167 142° Southeast 200 230 7,400  Level Northern Cal TRACON
Thu 07:15:05 PM 37.4333 -120.3833 142° Southeast 200 230 7,400 58 Level Northern Cal TRACON
Thu 07:15:48 PM 37.4092 -120.3517 134° Southeast 199 229 7,500 58 Climbing Oakland Center
Thu 07:16:49 PM 37.3575 -120.2992 141° Southeast 199 229 7,500  Level Oakland Center
Thu 07:17:50 PM 37.3094 -120.2614 148° Southeast 200 230 7,500  Level Oakland Center
Thu 07:18:52 PM 37.2675 -120.2156 139° Southeast 200 230 7,500  Level Oakland Center
Thu 07:19:53 PM 37.2269 -120.1719 139° Southeast 194 223 7,500 -146 Level Oakland Center
Thu 07:20:55 PM 37.1817 -120.1281 142° Southeast 204 235 7,200 -341 Descending Oakland Center
Thu 07:21:56 PM 37.1325 -120.0797 142° Southeast 207 238 6,800 -393 Descending Oakland Center
Thu 07:22:57 PM 37.0892 -120.0356 141° Southeast 206 237 6,400 -341 Descending Oakland Center
Thu 07:23:59 PM 37.0506 -119.9953 140° Southeast 203 234 6,100 -390 Descending Oakland Center
Thu 07:25:00 PM 36.9978 -119.9425 141° Southeast 202 232 5,600 -554 Descending Oakland Center
Thu 07:26:00 PM 36.9638 -119.9037 138° Southeast  Level FlightAware Approximate
Thu 07:27:03 PM 36.9147 -119.8528 138° Southeast 193 222 4,400  Level Oakland Center
Thu 07:28:05 PM 36.8828 -119.8053 130° Southeast 177 204 3,600 -829 Descending Oakland Center
Thu 07:29:06 PM 36.8428 -119.7600 138° Southeast 177 204 2,700 -780 Descending Oakland Center
Thu 07:30:08 PM 36.8086 -119.7219 138° Southeast 170 196 2,000 -537 Descending Oakland Center
Thu 07:31:09 PM 36.7750 -119.6858 139° Southeast 161 185 1,600 -634 Descending Oakland Center
Thu 07:32:11 PM 36.7694 -119.7075 252° West 131 151 700 -585 Descending Oakland Center
Thu 07:33:12 PM 36.7814 -119.7292 305° West 82 94 400 -295 Descending Oakland Center
Thu 07:35:00 PM 36.7764 -119.7187 North  Level Estimated

Login

Don't have an account? Register now (free) for customized features, flight alerts, and more!